sensor_id;sensor_type;location;lat;lon;timestamp;pressure;altitude;pressure_sealevel;temperature;humidity
21960;BME280;11144;43.030;25.108;2023-07-20T00:01:03;99225.13;;;24.07;58.46
21960;BME280;11144;43.030;25.108;2023-07-20T00:02:36;99217.09;;;24.12;58.38
21960;BME280;11144;43.030;25.108;2023-07-20T00:04:14;99199.94;;;24.18;57.89
21960;BME280;11144;43.030;25.108;2023-07-20T00:05:48;99195.66;;;24.23;57.42
21960;BME280;11144;43.030;25.108;2023-07-20T00:07:21;99200.47;;;24.26;57.08
21960;BME280;11144;43.030;25.108;2023-07-20T00:08:55;99202.06;;;24.27;56.89
21960;BME280;11144;43.030;25.108;2023-07-20T00:10:28;99192.41;;;24.31;56.46
21960;BME280;11144;43.030;25.108;2023-07-20T00:12:01;99186.22;;;24.35;56.63
21960;BME280;11144;43.030;25.108;2023-07-20T00:13:34;99184.59;;;24.39;56.95
21960;BME280;11144;43.030;25.108;2023-07-20T00:15:08;99183.25;;;24.42;56.65
21960;BME280;11144;43.030;25.108;2023-07-20T00:16:41;99155.41;;;24.38;56.43
21960;BME280;11144;43.030;25.108;2023-07-20T00:18:14;99162.06;;;24.45;56.13
21960;BME280;11144;43.030;25.108;2023-07-20T00:19:47;99143.31;;;24.45;56.35
21960;BME280;11144;43.030;25.108;2023-07-20T00:21:21;99125.66;;;24.34;56.39
21960;BME280;11144;43.030;25.108;2023-07-20T00:22:53;99125.44;;;24.26;56.04
21960;BME280;11144;43.030;25.108;2023-07-20T00:24:31;99126.31;;;24.11;57.14
21960;BME280;11144;43.030;25.108;2023-07-20T00:26:04;99115.34;;;24.02;57.60
21960;BME280;11144;43.030;25.108;2023-07-20T00:27:38;99112.69;;;23.97;58.21
21960;BME280;11144;43.030;25.108;2023-07-20T00:29:10;99093.47;;;23.80;58.79
21960;BME280;11144;43.030;25.108;2023-07-20T00:30:44;99093.22;;;23.67;60.00
21960;BME280;11144;43.030;25.108;2023-07-20T00:32:17;99082.81;;;23.50;59.56
21960;BME280;11144;43.030;25.108;2023-07-20T00:33:50;99065.97;;;23.24;61.17
21960;BME280;11144;43.030;25.108;2023-07-20T00:35:23;99045.94;;;22.92;62.08
21960;BME280;11144;43.030;25.108;2023-07-20T00:36:57;98978.00;;;22.52;62.48
21960;BME280;11144;43.030;25.108;2023-07-20T00:38:29;98874.91;;;22.06;63.71
21960;BME280;11144;43.030;25.108;2023-07-20T00:40:05;98763.28;;;21.58;65.26
21960;BME280;11144;43.030;25.108;2023-07-20T00:41:39;98768.59;;;21.27;65.78
21960;BME280;11144;43.030;25.108;2023-07-20T00:43:12;98827.44;;;21.11;67.13
21960;BME280;11144;43.030;25.108;2023-07-20T00:44:45;98851.66;;;21.04;67.33
21960;BME280;11144;43.030;25.108;2023-07-20T00:46:20;98891.63;;;21.04;67.90
21960;BME280;11144;43.030;25.108;2023-07-20T00:47:54;98899.63;;;21.04;68.42
21960;BME280;11144;43.030;25.108;2023-07-20T00:49:27;98899.63;;;21.04;70.07
21960;BME280;11144;43.030;25.108;2023-07-20T00:51:00;98895.38;;;21.03;70.52
21960;BME280;11144;43.030;25.108;2023-07-20T00:52:35;98893.81;;;21.07;69.45
21960;BME280;11144;43.030;25.108;2023-07-20T00:54:11;98893.03;;;21.12;68.92
21960;BME280;11144;43.030;25.108;2023-07-20T00:55:46;98878.38;;;21.14;69.58
21960;BME280;11144;43.030;25.108;2023-07-20T00:57:19;98863.44;;;21.13;70.15
21960;BME280;11144;43.030;25.108;2023-07-20T00:58:52;98850.09;;;21.13;69.95
21960;BME280;11144;43.030;25.108;2023-07-20T01:00:25;98831.19;;;21.10;69.35
21960;BME280;11144;43.030;25.108;2023-07-20T01:01:59;98845.34;;;21.20;70.22
21960;BME280;11144;43.030;25.108;2023-07-20T01:03:33;98826.16;;;21.23;69.65
21960;BME280;11144;43.030;25.108;2023-07-20T01:05:06;98805.09;;;21.22;70.61
21960;BME280;11144;43.030;25.108;2023-07-20T01:06:45;98794.16;;;21.18;71.33
21960;BME280;11144;43.030;25.108;2023-07-20T01:08:26;98790.94;;;21.11;71.35
21960;BME280;11144;43.030;25.108;2023-07-20T01:10:06;98786.91;;;21.04;72.79
21960;BME280;11144;43.030;25.108;2023-07-20T01:11:54;98773.25;;;20.90;75.64
21960;BME280;11144;43.030;25.108;2023-07-20T01:13:31;98797.22;;;20.95;71.64
21960;BME280;11144;43.030;25.108;2023-07-20T01:15:04;98800.94;;;20.89;72.02
21960;BME280;11144;43.030;25.108;2023-07-20T01:16:39;98789.22;;;20.90;72.76
21960;BME280;11144;43.030;25.108;2023-07-20T01:18:12;98779.63;;;20.89;71.88
21960;BME280;11144;43.030;25.108;2023-07-20T01:19:45;98769.25;;;20.88;72.10
21960;BME280;11144;43.030;25.108;2023-07-20T01:21:22;98772.16;;;20.91;72.77
21960;BME280;11144;43.030;25.108;2023-07-20T01:23:23;98769.50;;;20.91;72.90
21960;BME280;11144;43.030;25.108;2023-07-20T01:25:19;98771.94;;;20.93;73.12
21960;BME280;11144;43.030;25.108;2023-07-20T01:27:07;98771.63;;;20.89;73.32
21960;BME280;11144;43.030;25.108;2023-07-20T01:29:05;98773.75;;;20.87;73.60
21960;BME280;11144;43.030;25.108;2023-07-20T01:30:53;98772.44;;;20.90;73.70
21960;BME280;11144;43.030;25.108;2023-07-20T01:32:31;98775.13;;;20.95;71.80
21960;BME280;11144;43.030;25.108;2023-07-20T01:34:05;98764.75;;;20.98;71.62
21960;BME280;11144;43.030;25.108;2023-07-20T01:35:43;98755.44;;;21.01;71.22
21960;BME280;11144;43.030;25.108;2023-07-20T01:37:17;98743.41;;;20.98;71.08
21960;BME280;11144;43.030;25.108;2023-07-20T01:38:52;98749.34;;;21.05;71.68
21960;BME280;11144;43.030;25.108;2023-07-20T01:40:25;98751.50;;;21.08;73.63
21960;BME280;11144;43.030;25.108;2023-07-20T01:41:59;98743.41;;;20.98;73.13
21960;BME280;11144;43.030;25.108;2023-07-20T01:43:32;98757.34;;;21.10;74.15
21960;BME280;11144;43.030;25.108;2023-07-20T01:45:06;98760.28;;;21.14;72.58
21960;BME280;11144;43.030;25.108;2023-07-20T01:46:38;98746.97;;;21.14;72.20
21960;BME280;11144;43.030;25.108;2023-07-20T01:48:13;98753.09;;;21.14;72.70
21960;BME280;11144;43.030;25.108;2023-07-20T01:49:46;98750.69;;;21.08;73.21
21960;BME280;11144;43.030;25.108;2023-07-20T01:51:19;98754.41;;;21.07;73.41
21960;BME280;11144;43.030;25.108;2023-07-20T01:52:53;98755.22;;;21.07;74.54
21960;BME280;11144;43.030;25.108;2023-07-20T01:54:26;98748.81;;;21.08;74.18
21960;BME280;11144;43.030;25.108;2023-07-20T01:56:00;98756.03;;;21.13;74.00
21960;BME280;11144;43.030;25.108;2023-07-20T01:57:33;98759.25;;;21.15;74.44
21960;BME280;11144;43.030;25.108;2023-07-20T01:59:06;98762.94;;;21.14;74.11
21960;BME280;11144;43.030;25.108;2023-07-20T02:00:39;98771.22;;;21.12;74.06
21960;BME280;11144;43.030;25.108;2023-07-20T02:02:12;98770.66;;;21.05;74.29
21960;BME280;11144;43.030;25.108;2023-07-20T02:03:46;98759.38;;;20.93;73.95
21960;BME280;11144;43.030;25.108;2023-07-20T02:05:19;98757.25;;;20.90;74.40
21960;BME280;11144;43.030;25.108;2023-07-20T02:06:52;98753.53;;;20.91;74.37
21960;BME280;11144;43.030;25.108;2023-07-20T02:08:28;98769.56;;;21.01;74.24
21960;BME280;11144;43.030;25.108;2023-07-20T02:10:01;98771.47;;;21.06;73.61
21960;BME280;11144;43.030;25.108;2023-07-20T02:11:35;98776.00;;;21.10;73.81
21960;BME280;11144;43.030;25.108;2023-07-20T02:13:07;98770.44;;;21.17;73.38
21960;BME280;11144;43.030;25.108;2023-07-20T02:14:41;98765.91;;;21.22;73.26
21960;BME280;11144;43.030;25.108;2023-07-20T02:16:14;98766.97;;;21.26;73.14
21960;BME280;11144;43.030;25.108;2023-07-20T02:17:47;98765.94;;;21.33;73.76
21960;BME280;11144;43.030;25.108;2023-07-20T02:19:21;98765.13;;;21.32;73.42
21960;BME280;11144;43.030;25.108;2023-07-20T02:20:55;98763.78;;;21.24;73.70
21960;BME280;11144;43.030;25.108;2023-07-20T02:22:27;98754.69;;;21.15;73.47
21960;BME280;11144;43.030;25.108;2023-07-20T02:24:00;98759.47;;;21.13;74.52
21960;BME280;11144;43.030;25.108;2023-07-20T02:25:33;98757.06;;;21.07;74.09
21960;BME280;11144;43.030;25.108;2023-07-20T02:27:06;98754.63;;;21.00;74.09
21960;BME280;11144;43.030;25.108;2023-07-20T02:28:39;98750.06;;;20.96;74.15
21960;BME280;11144;43.030;25.108;2023-07-20T02:30:13;98754.59;;;20.95;73.58
21960;BME280;11144;43.030;25.108;2023-07-20T02:31:45;98753.00;;;20.94;73.67
21960;BME280;11144;43.030;25.108;2023-07-20T02:33:18;98753.53;;;20.91;73.58
21960;BME280;11144;43.030;25.108;2023-07-20T02:34:53;98743.88;;;20.80;74.00
21960;BME280;11144;43.030;25.108;2023-07-20T02:36:27;98747.91;;;20.83;74.02
21960;BME280;11144;43.030;25.108;2023-07-20T02:37:59;98763.34;;;20.81;74.10
21960;BME280;11144;43.030;25.108;2023-07-20T02:39:32;98760.41;;;20.82;73.85
21960;BME280;11144;43.030;25.108;2023-07-20T02:41:05;98773.72;;;20.82;73.85
21960;BME280;11144;43.030;25.108;2023-07-20T02:42:38;98762.78;;;20.74;74.56
21960;BME280;11144;43.030;25.108;2023-07-20T02:44:11;98767.78;;;20.65;75.16
21960;BME280;11144;43.030;25.108;2023-07-20T02:45:45;98759.78;;;20.60;74.80
21960;BME280;11144;43.030;25.108;2023-07-20T02:47:18;98769.38;;;20.61;75.34
21960;BME280;11144;43.030;25.108;2023-07-20T02:48:51;98774.13;;;20.54;75.11
21960;BME280;11144;43.030;25.108;2023-07-20T02:50:25;98774.66;;;20.51;74.84
21960;BME280;11144;43.030;25.108;2023-07-20T02:51:58;98778.91;;;20.52;75.24
21960;BME280;11144;43.030;25.108;2023-07-20T02:53:31;98774.91;;;20.49;74.89
21960;BME280;11144;43.030;25.108;2023-07-20T02:55:05;98750.59;;;20.36;75.03
21960;BME280;11144;43.030;25.108;2023-07-20T02:56:39;98775.41;;;20.41;75.23
21960;BME280;11144;43.030;25.108;2023-07-20T02:58:11;98775.91;;;20.38;74.90
21960;BME280;11144;43.030;25.108;2023-07-20T02:59:45;98775.09;;;20.38;75.17
21960;BME280;11144;43.030;25.108;2023-07-20T03:01:18;98777.22;;;20.36;75.18
21960;BME280;11144;43.030;25.108;2023-07-20T03:02:52;98779.06;;;20.30;75.19
21960;BME280;11144;43.030;25.108;2023-07-20T03:04:27;98783.59;;;20.30;75.27
21960;BME280;11144;43.030;25.108;2023-07-20T03:06:02;98785.97;;;20.31;75.48
21960;BME280;11144;43.030;25.108;2023-07-20T03:07:35;98780.09;;;20.24;75.50
21960;BME280;11144;43.030;25.108;2023-07-20T03:09:08;98789.06;;;20.18;75.84
21960;BME280;11144;43.030;25.108;2023-07-20T03:10:41;98770.38;;;20.08;75.60
21960;BME280;11144;43.030;25.108;2023-07-20T03:12:14;98785.31;;;20.14;75.93
21960;BME280;11144;43.030;25.108;2023-07-20T03:13:48;98794.16;;;20.20;76.17
21960;BME280;11144;43.030;25.108;2023-07-20T03:15:21;98795.50;;;20.22;76.72
21960;BME280;11144;43.030;25.108;2023-07-20T03:16:54;98797.38;;;20.27;76.37
21960;BME280;11144;43.030;25.108;2023-07-20T03:18:27;98788.13;;;20.34;76.00
21960;BME280;11144;43.030;25.108;2023-07-20T03:20:00;98786.31;;;20.40;75.68
21960;BME280;11144;43.030;25.108;2023-07-20T03:21:35;98782.09;;;20.44;75.68
21960;BME280;11144;43.030;25.108;2023-07-20T03:23:12;98783.44;;;20.46;75.55
21960;BME280;11144;43.030;25.108;2023-07-20T03:24:45;98773.81;;;20.45;76.46
21960;BME280;11144;43.030;25.108;2023-07-20T03:26:19;98792.22;;;20.52;75.88
21960;BME280;11144;43.030;25.108;2023-07-20T03:27:53;98781.34;;;20.58;75.70
21960;BME280;11144;43.030;25.108;2023-07-20T03:29:26;98787.75;;;20.63;75.62
21960;BME280;11144;43.030;25.108;2023-07-20T03:30:59;98796.59;;;20.68;76.48
21960;BME280;11144;43.030;25.108;2023-07-20T03:32:35;98804.31;;;20.70;75.62
21960;BME280;11144;43.030;25.108;2023-07-20T03:34:08;98800.88;;;20.74;75.81
21960;BME280;11144;43.030;25.108;2023-07-20T03:35:42;98795.03;;;20.77;75.86
21960;BME280;11144;43.030;25.108;2023-07-20T03:37:17;98795.56;;;20.84;75.96
21960;BME280;11144;43.030;25.108;2023-07-20T03:38:50;98799.91;;;20.90;75.91
21960;BME280;11144;43.030;25.108;2023-07-20T03:40:23;98813.22;;;20.95;75.54
21960;BME280;11144;43.030;25.108;2023-07-20T03:41:57;98820.44;;;21.00;75.76
21960;BME280;11144;43.030;25.108;2023-07-20T03:43:30;98830.59;;;21.03;76.81
21960;BME280;11144;43.030;25.108;2023-07-20T03:45:04;98839.44;;;21.08;75.98
21960;BME280;11144;43.030;25.108;2023-07-20T03:46:38;98837.56;;;21.09;75.86
21960;BME280;11144;43.030;25.108;2023-07-20T03:48:11;98830.63;;;21.08;75.46
21960;BME280;11144;43.030;25.108;2023-07-20T03:49:44;98837.31;;;21.10;75.95
21960;BME280;11144;43.030;25.108;2023-07-20T03:51:17;98844.25;;;21.11;75.57
21960;BME280;11144;43.030;25.108;2023-07-20T03:52:51;98836.22;;;21.06;75.58
21960;BME280;11144;43.030;25.108;2023-07-20T03:54:24;98834.34;;;21.07;75.45
21960;BME280;11144;43.030;25.108;2023-07-20T03:55:57;98819.91;;;21.03;75.46
21960;BME280;11144;43.030;25.108;2023-07-20T03:57:30;98833.03;;;21.09;75.35
21960;BME280;11144;43.030;25.108;2023-07-20T03:59:04;98835.19;;;21.12;75.84
21960;BME280;11144;43.030;25.108;2023-07-20T04:00:37;98829.31;;;21.15;75.39
21960;BME280;11144;43.030;25.108;2023-07-20T04:02:10;98826.94;;;21.14;76.16
21960;BME280;11144;43.030;25.108;2023-07-20T04:03:44;98834.41;;;21.22;75.47
21960;BME280;11144;43.030;25.108;2023-07-20T04:05:21;98835.78;;;21.29;75.18
21960;BME280;11144;43.030;25.108;2023-07-20T04:06:53;98838.47;;;21.35;75.12
21960;BME280;11144;43.030;25.108;2023-07-20T04:08:28;98832.06;;;21.41;74.83
21960;BME280;11144;43.030;25.108;2023-07-20T04:10:00;98819.53;;;21.36;74.84
21960;BME280;11144;43.030;25.108;2023-07-20T04:11:33;98821.13;;;21.42;75.10
21960;BME280;11144;43.030;25.108;2023-07-20T04:13:07;98826.75;;;21.46;75.12
21960;BME280;11144;43.030;25.108;2023-07-20T04:14:39;98821.16;;;21.47;75.21
21960;BME280;11144;43.030;25.108;2023-07-20T04:16:13;98826.50;;;21.57;75.21
21960;BME280;11144;43.030;25.108;2023-07-20T04:17:46;98826.00;;;21.65;74.64
21960;BME280;11144;43.030;25.108;2023-07-20T04:19:18;98824.13;;;21.71;74.43
21960;BME280;11144;43.030;25.108;2023-07-20T04:20:52;98824.16;;;21.76;74.27
21960;BME280;11144;43.030;25.108;2023-07-20T04:22:24;98820.94;;;21.79;74.04
21960;BME280;11144;43.030;25.108;2023-07-20T04:23:59;98816.16;;;21.81;74.52
21960;BME280;11144;43.030;25.108;2023-07-20T04:25:32;98818.88;;;21.86;74.18
21960;BME280;11144;43.030;25.108;2023-07-20T04:27:12;98814.59;;;21.90;74.29
21960;BME280;11144;43.030;25.108;2023-07-20T04:28:44;98818.59;;;21.92;73.88
21960;BME280;11144;43.030;25.108;2023-07-20T04:30:26;98818.03;;;21.95;74.21
21960;BME280;11144;43.030;25.108;2023-07-20T04:32:00;98823.41;;;22.00;74.12
21960;BME280;11144;43.030;25.108;2023-07-20T04:33:34;98826.34;;;22.19;74.44
21960;BME280;11144;43.030;25.108;2023-07-20T04:35:07;98811.06;;;22.35;75.01
21960;BME280;11144;43.030;25.108;2023-07-20T04:36:42;98830.00;;;22.63;74.42
21960;BME280;11144;43.030;25.108;2023-07-20T04:38:17;98831.28;;;22.91;73.48
21960;BME280;11144;43.030;25.108;2023-07-20T04:39:54;98823.94;;;23.17;73.41
21960;BME280;11144;43.030;25.108;2023-07-20T04:41:28;98830.84;;;23.38;72.56
21960;BME280;11144;43.030;25.108;2023-07-20T04:43:03;98822.22;;;23.46;73.04
21960;BME280;11144;43.030;25.108;2023-07-20T04:44:36;98824.03;;;23.61;72.16
21960;BME280;11144;43.030;25.108;2023-07-20T04:46:10;98825.03;;;23.70;71.27
21960;BME280;11144;43.030;25.108;2023-07-20T04:47:43;98829.34;;;23.66;71.46
21960;BME280;11144;43.030;25.108;2023-07-20T04:49:16;98835.00;;;23.59;70.50
21960;BME280;11144;43.030;25.108;2023-07-20T04:50:50;98828.63;;;23.50;69.96
21960;BME280;11144;43.030;25.108;2023-07-20T04:52:23;98837.00;;;23.38;70.58
21960;BME280;11144;43.030;25.108;2023-07-20T04:54:13;98832.47;;;23.29;70.22
21960;BME280;11144;43.030;25.108;2023-07-20T04:55:50;98839.47;;;23.15;70.50
21960;BME280;11144;43.030;25.108;2023-07-20T04:57:24;98836.56;;;23.11;70.11
21960;BME280;11144;43.030;25.108;2023-07-20T04:58:58;98841.38;;;23.14;70.18
21960;BME280;11144;43.030;25.108;2023-07-20T05:00:31;98832.03;;;23.12;69.86
21960;BME280;11144;43.030;25.108;2023-07-20T05:02:05;98836.25;;;23.18;70.19
21960;BME280;11144;43.030;25.108;2023-07-20T05:03:38;98828.69;;;23.40;69.78
21960;BME280;11144;43.030;25.108;2023-07-20T05:05:14;98834.44;;;23.62;69.91
21960;BME280;11144;43.030;25.108;2023-07-20T05:06:46;98830.66;;;23.68;69.28
21960;BME280;11144;43.030;25.108;2023-07-20T05:08:20;98822.19;;;23.90;69.14
21960;BME280;11144;43.030;25.108;2023-07-20T05:09:54;98824.34;;;24.27;68.79
21960;BME280;11144;43.030;25.108;2023-07-20T05:11:29;98814.44;;;24.56;68.26
21960;BME280;11144;43.030;25.108;2023-07-20T05:13:01;98814.22;;;24.76;67.90
21960;BME280;11144;43.030;25.108;2023-07-20T05:14:35;98792.53;;;24.96;67.04
21960;BME280;11144;43.030;25.108;2023-07-20T05:16:08;98812.16;;;25.15;66.63
21960;BME280;11144;43.030;25.108;2023-07-20T05:17:41;98815.09;;;25.37;66.31
21960;BME280;11144;43.030;25.108;2023-07-20T05:19:15;98815.97;;;25.70;65.24
21960;BME280;11144;43.030;25.108;2023-07-20T05:20:48;98806.22;;;25.93;65.81
21960;BME280;11144;43.030;25.108;2023-07-20T05:22:20;98802.72;;;26.11;65.90
21960;BME280;11144;43.030;25.108;2023-07-20T05:23:54;98803.19;;;26.45;64.22
21960;BME280;11144;43.030;25.108;2023-07-20T05:25:27;98808.50;;;26.77;62.64
21960;BME280;11144;43.030;25.108;2023-07-20T05:27:04;98795.06;;;27.04;62.93
21960;BME280;11144;43.030;25.108;2023-07-20T05:28:36;98788.38;;;27.16;61.73
21960;BME280;11144;43.030;25.108;2023-07-20T05:30:10;98789.25;;;27.25;61.79
21960;BME280;11144;43.030;25.108;2023-07-20T05:31:43;98788.25;;;27.48;61.31
21960;BME280;11144;43.030;25.108;2023-07-20T05:33:16;98787.69;;;27.82;60.93
21960;BME280;11144;43.030;25.108;2023-07-20T05:34:51;98780.28;;;27.87;56.20
21960;BME280;11144;43.030;25.108;2023-07-20T05:36:27;98790.13;;;28.05;58.32
21960;BME280;11144;43.030;25.108;2023-07-20T05:37:59;98790.50;;;28.43;56.68
21960;BME280;11144;43.030;25.108;2023-07-20T05:39:33;98795.44;;;28.89;55.98
21960;BME280;11144;43.030;25.108;2023-07-20T05:41:06;98789.81;;;29.16;54.59
21960;BME280;11144;43.030;25.108;2023-07-20T05:42:43;98793.91;;;29.05;57.19
21960;BME280;11144;43.030;25.108;2023-07-20T05:44:16;98789.19;;;29.28;54.45
21960;BME280;11144;43.030;25.108;2023-07-20T05:45:49;98784.78;;;29.49;55.03
21960;BME280;11144;43.030;25.108;2023-07-20T05:47:21;98770.31;;;29.62;53.18
21960;BME280;11144;43.030;25.108;2023-07-20T05:48:55;98779.69;;;29.64;51.13
21960;BME280;11144;43.030;25.108;2023-07-20T05:50:28;98780.31;;;29.78;53.08
21960;BME280;11144;43.030;25.108;2023-07-20T05:52:00;98774.94;;;29.78;51.35
21960;BME280;11144;43.030;25.108;2023-07-20T05:53:35;98771.84;;;30.14;53.16
21960;BME280;11144;43.030;25.108;2023-07-20T05:55:08;98766.50;;;29.71;51.56
21960;BME280;11144;43.030;25.108;2023-07-20T05:56:41;98775.72;;;29.87;51.62
21960;BME280;11144;43.030;25.108;2023-07-20T05:58:15;98772.78;;;30.18;51.60
21960;BME280;11144;43.030;25.108;2023-07-20T05:59:48;98772.94;;;30.22;48.67
21960;BME280;11144;43.030;25.108;2023-07-20T06:01:24;98762.25;;;30.34;48.72
21960;BME280;11144;43.030;25.108;2023-07-20T06:02:59;98770.59;;;30.58;48.86
21960;BME280;11144;43.030;25.108;2023-07-20T06:04:31;98776.47;;;30.69;47.33
21960;BME280;11144;43.030;25.108;2023-07-20T06:06:05;98780.22;;;30.76;47.49
21960;BME280;11144;43.030;25.108;2023-07-20T06:07:38;98782.81;;;30.73;47.73
21960;BME280;11144;43.030;25.108;2023-07-20T06:09:11;98771.28;;;30.93;46.03
21960;BME280;11144;43.030;25.108;2023-07-20T06:10:44;98769.81;;;31.16;47.71
21960;BME280;11144;43.030;25.108;2023-07-20T06:12:17;98767.44;;;31.44;46.08
21960;BME280;11144;43.030;25.108;2023-07-20T06:13:51;98769.63;;;31.50;47.10
21960;BME280;11144;43.030;25.108;2023-07-20T06:15:25;98771.34;;;31.55;46.19
21960;BME280;11144;43.030;25.108;2023-07-20T06:16:59;98773.97;;;31.63;45.67
21960;BME280;11144;43.030;25.108;2023-07-20T06:18:32;98775.44;;;31.93;44.76
21960;BME280;11144;43.030;25.108;2023-07-20T06:20:10;98770.44;;;32.16;44.78
21960;BME280;11144;43.030;25.108;2023-07-20T06:21:44;98766.97;;;32.40;42.62
21960;BME280;11144;43.030;25.108;2023-07-20T06:23:19;98768.59;;;32.53;43.37
21960;BME280;11144;43.030;25.108;2023-07-20T06:24:53;98767.59;;;32.69;42.68
21960;BME280;11144;43.030;25.108;2023-07-20T06:26:27;98758.75;;;32.85;41.94
21960;BME280;11144;43.030;25.108;2023-07-20T06:28:03;98761.94;;;32.87;40.69
21960;BME280;11144;43.030;25.108;2023-07-20T06:29:40;98760.16;;;31.89;43.14
21960;BME280;11144;43.030;25.108;2023-07-20T06:31:14;98763.00;;;31.92;42.68
21960;BME280;11144;43.030;25.108;2023-07-20T06:32:47;98762.75;;;32.06;43.26
21960;BME280;11144;43.030;25.108;2023-07-20T06:34:21;98757.00;;;31.87;43.43
21960;BME280;11144;43.030;25.108;2023-07-20T06:35:55;98759.78;;;31.99;42.27
21960;BME280;11144;43.030;25.108;2023-07-20T06:37:30;98761.44;;;32.36;41.60
21960;BME280;11144;43.030;25.108;2023-07-20T06:39:02;98759.56;;;32.61;41.99
21960;BME280;11144;43.030;25.108;2023-07-20T06:40:38;98767.56;;;32.94;41.17
21960;BME280;11144;43.030;25.108;2023-07-20T06:42:11;98763.75;;;33.19;40.14
21960;BME280;11144;43.030;25.108;2023-07-20T06:43:44;98754.34;;;33.16;39.40
21960;BME280;11144;43.030;25.108;2023-07-20T06:45:21;98757.59;;;33.22;40.70
21960;BME280;11144;43.030;25.108;2023-07-20T06:46:55;98764.56;;;33.47;39.16
21960;BME280;11144;43.030;25.108;2023-07-20T06:48:28;98765.44;;;33.63;37.94
21960;BME280;11144;43.030;25.108;2023-07-20T06:50:01;98774.63;;;33.59;39.05
21960;BME280;11144;43.030;25.108;2023-07-20T06:51:34;98778.88;;;33.32;38.52
21960;BME280;11144;43.030;25.108;2023-07-20T06:53:07;98780.22;;;33.26;38.89
21960;BME280;11144;43.030;25.108;2023-07-20T06:54:39;98778.44;;;33.18;38.42
21960;BME280;11144;43.030;25.108;2023-07-20T06:56:15;98781.47;;;33.28;38.99
21960;BME280;11144;43.030;25.108;2023-07-20T06:57:48;98780.06;;;33.47;39.39
21960;BME280;11144;43.030;25.108;2023-07-20T06:59:21;98778.78;;;33.04;39.17
21960;BME280;11144;43.030;25.108;2023-07-20T07:00:56;98779.53;;;33.29;40.59
21960;BME280;11144;43.030;25.108;2023-07-20T07:02:29;98783.63;;;33.75;38.47
21960;BME280;11144;43.030;25.108;2023-07-20T07:04:01;98775.69;;;34.09;37.38
21960;BME280;11144;43.030;25.108;2023-07-20T07:05:36;98780.41;;;34.12;38.58
21960;BME280;11144;43.030;25.108;2023-07-20T07:07:10;98783.06;;;34.25;38.02
21960;BME280;11144;43.030;25.108;2023-07-20T07:08:43;98778.06;;;34.42;37.12
21960;BME280;11144;43.030;25.108;2023-07-20T07:10:17;98778.31;;;34.22;37.18
21960;BME280;11144;43.030;25.108;2023-07-20T07:11:50;98771.13;;;34.13;36.65
21960;BME280;11144;43.030;25.108;2023-07-20T07:13:25;98783.94;;;34.44;38.62
21960;BME280;11144;43.030;25.108;2023-07-20T07:14:58;98783.41;;;34.39;37.24
21960;BME280;11144;43.030;25.108;2023-07-20T07:16:33;98783.41;;;34.39;37.75
21960;BME280;11144;43.030;25.108;2023-07-20T07:18:10;98782.72;;;34.42;36.66
21960;BME280;11144;43.030;25.108;2023-07-20T07:19:44;98780.19;;;34.64;37.01
21960;BME280;11144;43.030;25.108;2023-07-20T07:21:20;98769.28;;;34.80;36.56
21960;BME280;11144;43.030;25.108;2023-07-20T07:22:53;98780.66;;;35.17;36.63
21960;BME280;11144;43.030;25.108;2023-07-20T07:24:27;98784.59;;;35.19;35.23
21960;BME280;11144;43.030;25.108;2023-07-20T07:26:05;98784.25;;;35.21;35.83
21960;BME280;11144;43.030;25.108;2023-07-20T07:27:38;98789.81;;;35.43;34.79
21960;BME280;11144;43.030;25.108;2023-07-20T07:29:12;98787.84;;;35.60;34.77
21960;BME280;11144;43.030;25.108;2023-07-20T07:30:45;98786.03;;;35.86;34.62
21960;BME280;11144;43.030;25.108;2023-07-20T07:32:20;98784.47;;;36.04;34.50
21960;BME280;11144;43.030;25.108;2023-07-20T07:33:52;98785.78;;;36.14;33.16
21960;BME280;11144;43.030;25.108;2023-07-20T07:35:25;98790.25;;;36.03;32.73
21960;BME280;11144;43.030;25.108;2023-07-20T07:36:58;98788.53;;;35.95;33.52
21960;BME280;11144;43.030;25.108;2023-07-20T07:38:31;98790.13;;;35.96;33.73
21960;BME280;11144;43.030;25.108;2023-07-20T07:40:24;98791.97;;;35.92;33.08
21960;BME280;11144;43.030;25.108;2023-07-20T07:41:57;98795.59;;;35.58;33.01
21960;BME280;11144;43.030;25.108;2023-07-20T07:43:30;98791.31;;;35.06;32.88
21960;BME280;11144;43.030;25.108;2023-07-20T07:45:03;98792.56;;;34.46;33.66
21960;BME280;11144;43.030;25.108;2023-07-20T07:46:37;98800.06;;;34.22;34.62
21960;BME280;11144;43.030;25.108;2023-07-20T07:48:12;98801.94;;;34.33;34.32
21960;BME280;11144;43.030;25.108;2023-07-20T07:49:46;98804.03;;;34.24;34.17
21960;BME280;11144;43.030;25.108;2023-07-20T07:51:19;98791.19;;;34.09;33.58
21960;BME280;11144;43.030;25.108;2023-07-20T07:52:52;98798.44;;;33.77;34.51
21960;BME280;11144;43.030;25.108;2023-07-20T07:54:25;98806.78;;;33.57;34.55
21960;BME280;11144;43.030;25.108;2023-07-20T07:55:58;98797.31;;;33.78;34.07
21960;BME280;11144;43.030;25.108;2023-07-20T07:57:31;98802.34;;;33.64;34.27
21960;BME280;11144;43.030;25.108;2023-07-20T07:59:04;98801.34;;;33.57;34.37
21960;BME280;11144;43.030;25.108;2023-07-20T08:00:36;98802.94;;;33.58;34.02
21960;BME280;11144;43.030;25.108;2023-07-20T08:02:10;98811.25;;;33.25;33.71
21960;BME280;11144;43.030;25.108;2023-07-20T08:03:44;98808.47;;;33.49;34.15
21960;BME280;11144;43.030;25.108;2023-07-20T08:05:18;98803.44;;;33.75;33.96
21960;BME280;11144;43.030;25.108;2023-07-20T08:06:51;98802.75;;;33.78;33.94
21960;BME280;11144;43.030;25.108;2023-07-20T08:08:24;98811.75;;;33.94;33.71
21960;BME280;11144;43.030;25.108;2023-07-20T08:09:56;98809.53;;;33.84;33.09
21960;BME280;11144;43.030;25.108;2023-07-20T08:11:31;98806.53;;;34.01;33.02
21960;BME280;11144;43.030;25.108;2023-07-20T08:13:05;98802.16;;;34.12;32.94